Time;durP1;ratioP1;P1;durP2;ratioP2;P2;SDS_P1;SDS_P2;PMS_P1;PMS_P2;Temp;Humidity;BMP_temperature;BMP_pressure;BME280_temperature;BME280_humidity;BME280_pressure;Samples;Min_cycle;Max_cycle;Signal;HPM_P1;HPM_P2
2022/05/07 00:00:52;;;;;;;8.60;7.75;;;;;;;4.82;100.00;93610.84;2098656;28;20122;-80
2022/05/07 00:01:53;;;;;;;8.38;7.53;;;;;;;4.84;100.00;93598.00;2104241;28;20573;-83
2022/05/07 00:02:54;;;;;;;10.35;7.70;;;;;;;4.80;100.00;93600.63;2106380;28;20032;-83
2022/05/07 00:03:54;;;;;;;7.70;7.00;;;;;;;4.88;100.00;93604.09;2115438;28;20020;-82
2022/05/07 00:04:55;;;;;;;8.18;7.32;;;;;;;4.85;100.00;93604.81;2106888;28;20059;-82
2022/05/07 00:05:56;;;;;;;9.25;7.63;;;;;;;4.84;100.00;93598.00;2106770;28;20024;-81
2022/05/07 00:06:57;;;;;;;11.00;7.80;;;;;;;4.79;100.00;93595.69;2115386;27;20043;-83
2022/05/07 00:07:58;;;;;;;9.10;8.20;;;;;;;4.80;100.00;93597.22;2107002;28;20500;-82
2022/05/07 00:09:00;;;;;;;9.60;7.68;;;;;;;4.71;100.00;93592.22;2106993;28;20016;-83
2022/05/07 00:10:01;;;;;;;8.27;6.97;;;;;;;4.68;100.00;93597.50;2106906;28;20069;-82
2022/05/07 00:11:01;;;;;;;10.55;7.50;;;;;;;4.71;100.00;93594.13;2098364;28;20028;-83
2022/05/07 00:12:04;;;;;;;8.50;7.60;;;;;;;4.64;100.00;93594.81;2111865;28;20460;-81
2022/05/07 00:13:05;;;;;;;9.52;7.97;;;;;;;4.71;100.00;93594.88;2106437;28;20048;-81
2022/05/07 00:14:06;;;;;;;9.10;7.97;;;;;;;4.68;100.00;93590.31;2089158;28;20066;-83
2022/05/07 00:15:08;;;;;;;8.65;7.75;;;;;;;4.59;100.00;93597.03;2108418;28;20055;-83
2022/05/07 00:18:49;;;;;;;8.00;7.20;;;;;;;4.58;100.00;93590.97;2114914;28;20498;-82
2022/05/07 00:19:51;;;;;;;9.68;7.60;;;;;;;4.62;100.00;93591.03;2098356;28;20474;-81
2022/05/07 00:20:52;;;;;;;8.40;7.60;;;;;;;4.61;100.00;93586.81;2098650;28;20044;-82
2022/05/07 00:21:53;;;;;;;8.30;7.35;;;;;;;4.53;100.00;93592.09;2106844;28;20030;-81
2022/05/07 00:22:55;;;;;;;9.13;7.68;;;;;;;4.57;100.00;93589.47;2098367;28;20563;-81
2022/05/07 00:23:57;;;;;;;7.82;7.13;;;;;;;4.63;100.00;93584.59;2098529;28;20020;-81
2022/05/07 00:24:58;;;;;;;9.20;7.50;;;;;;;4.64;100.00;93588.75;2098608;28;20016;-80
2022/05/07 00:25:59;;;;;;;8.63;7.72;;;;;;;4.55;100.00;93592.47;2097358;28;21113;-82
2022/05/07 00:27:00;;;;;;;8.75;7.85;;;;;;;4.49;100.00;93582.59;2098315;28;20047;-80
2022/05/07 00:28:01;;;;;;;9.23;8.32;;;;;;;4.39;100.00;93588.53;2105948;28;20062;-83
2022/05/07 00:29:02;;;;;;;8.20;7.50;;;;;;;4.35;100.00;93572.63;2106701;28;20024;-80
2022/05/07 00:30:04;;;;;;;8.05;7.35;;;;;;;4.43;100.00;93582.13;2102323;28;20114;-82
2022/05/07 00:31:05;;;;;;;9.00;8.20;;;;;;;4.48;100.00;93578.44;2098851;28;20021;-82
2022/05/07 00:32:08;;;;;;;8.95;8.05;;;;;;;4.48;100.00;93579.19;2098202;28;20021;-80
2022/05/07 00:33:09;;;;;;;8.45;7.60;;;;;;;4.40;100.00;93577.59;2112342;27;20042;-82
2022/05/07 00:34:10;;;;;;;8.57;7.68;;;;;;;4.32;100.00;93577.91;2123468;27;20019;-80
2022/05/07 00:35:11;;;;;;;8.95;8.05;;;;;;;4.36;100.00;93570.75;2106592;28;20020;-80
2022/05/07 00:36:12;;;;;;;9.65;8.32;;;;;;;4.31;100.00;93579.03;2096591;28;20028;-82
2022/05/07 00:37:13;;;;;;;8.82;7.93;;;;;;;4.39;100.00;93578.72;2098234;28;20031;-80
2022/05/07 00:38:15;;;;;;;9.63;8.65;;;;;;;4.33;100.00;93574.13;2105806;28;20028;-83
2022/05/07 00:39:16;;;;;;;9.15;8.25;;;;;;;4.47;100.00;93579.53;2106658;28;20034;-80
2022/05/07 00:40:17;;;;;;;8.27;7.47;;;;;;;4.43;100.00;93573.44;2106580;28;20075;-82
2022/05/07 00:41:18;;;;;;;12.23;8.77;;;;;;;4.40;100.00;93577.59;2098204;28;20481;-83
2022/05/07 00:42:22;;;;;;;10.30;7.85;;;;;;;4.39;100.00;93578.72;2098267;28;20025;-80
2022/05/07 00:43:23;;;;;;;9.07;8.02;;;;;;;4.38;100.00;93577.19;2107006;28;20069;-82
2022/05/07 00:44:24;;;;;;;9.18;8.13;;;;;;;4.37;100.00;93572.25;2098092;28;20963;-81
2022/05/07 00:45:25;;;;;;;10.32;8.35;;;;;;;4.37;100.00;93574.91;2097984;28;20039;-83
2022/05/07 00:46:26;;;;;;;10.75;8.40;;;;;;;4.34;100.00;93576.38;2098091;28;20464;-81
2022/05/07 00:47:30;;;;;;;9.27;8.30;;;;;;;4.21;100.00;93581.19;2090072;28;20017;-81
2022/05/07 00:48:31;;;;;;;10.07;7.78;;;;;;;4.28;100.00;93578.63;2094966;28;20024;-81
2022/05/07 00:49:32;;;;;;;10.32;7.55;;;;;;;4.35;100.00;93575.28;2089692;28;20021;-80
2022/05/07 00:51:53;;;;;;;10.52;7.65;;;;;;;4.18;100.00;93581.94;2117573;27;20053;-81
2022/05/07 00:52:54;;;;;;;8.05;6.97;;;;;;;4.22;100.00;93579.31;2113813;28;20032;-80
2022/05/07 00:53:55;;;;;;;11.63;8.43;;;;;;;4.18;100.00;93575.88;2114783;28;20023;-81
2022/05/07 00:54:56;;;;;;;8.52;7.72;;;;;;;4.11;100.00;93570.50;2114775;28;20027;-80
2022/05/07 00:55:57;;;;;;;9.77;8.32;;;;;;;4.14;100.00;93575.09;2098038;28;20027;-82
2022/05/07 00:56:58;;;;;;;9.23;8.25;;;;;;;4.19;100.00;93569.47;2114998;27;20482;-81
2022/05/07 00:58:00;;;;;;;9.23;8.18;;;;;;;4.17;100.00;93566.41;2123418;27;20047;-81
2022/05/07 00:59:08;;;;;;;9.90;8.10;;;;;;;4.20;100.00;93565.69;2106159;28;20028;-81
2022/05/07 01:00:10;;;;;;;8.90;8.00;;;;;;;4.20;100.00;93561.16;2115940;27;20491;-81
2022/05/07 01:01:11;;;;;;;9.43;8.55;;;;;;;4.23;100.00;93568.38;2106202;28;20560;-82
2022/05/07 01:02:12;;;;;;;10.45;8.77;;;;;;;4.26;100.00;93569.53;2097310;28;20492;-82
2022/05/07 01:03:13;;;;;;;11.07;8.43;;;;;;;4.17;100.00;93564.53;2098021;28;20047;-81
2022/05/07 01:04:14;;;;;;;8.93;7.80;;;;;;;4.19;100.00;93574.75;2106558;27;20020;-81
2022/05/07 01:05:15;;;;;;;11.60;8.05;;;;;;;4.17;100.00;93561.09;2114732;28;20038;-83
2022/05/07 01:06:17;;;;;;;9.77;7.97;;;;;;;4.15;100.00;93568.66;2114451;28;20028;-82
2022/05/07 01:07:18;;;;;;;9.75;8.73;;;;;;;4.08;100.00;93571.22;2106280;28;20031;-82
2022/05/07 01:08:20;;;;;;;8.48;7.68;;;;;;;4.09;100.00;93576.16;2106272;28;20467;-82
2022/05/07 01:09:21;;;;;;;10.18;8.38;;;;;;;4.01;100.00;93575.31;2106730;28;20027;-81
2022/05/07 01:10:23;;;;;;;10.50;8.57;;;;;;;4.07;100.00;93573.09;2115892;27;20064;-80
2022/05/07 01:11:25;;;;;;;9.10;7.95;;;;;;;4.04;100.00;93574.63;2106195;28;20023;-81
2022/05/07 01:12:26;;;;;;;8.73;7.93;;;;;;;4.04;100.00;93581.78;2090104;28;20818;-81
2022/05/07 01:13:27;;;;;;;9.18;8.27;;;;;;;4.11;100.00;93573.16;2092484;28;20048;-82
2022/05/07 01:14:28;;;;;;;9.65;8.25;;;;;;;4.06;100.00;93571.59;2105451;28;20452;-82
2022/05/07 01:15:29;;;;;;;8.68;7.78;;;;;;;4.04;100.00;93579.16;2114597;28;20023;-81
2022/05/07 01:16:30;;;;;;;9.00;8.05;;;;;;;3.98;100.00;93573.41;2106116;28;20016;-81
2022/05/07 01:17:32;;;;;;;10.98;8.23;;;;;;;4.07;100.00;93572.34;2101989;28;20111;-80
2022/05/07 01:18:33;;;;;;;9.60;8.23;;;;;;;4.04;100.00;93565.91;2108727;28;20024;-80
2022/05/07 01:19:36;;;;;;;11.50;8.25;;;;;;;3.91;100.00;93565.41;2114482;28;20084;-82
2022/05/07 01:20:37;;;;;;;9.48;8.52;;;;;;;3.89;100.00;93570.28;2111637;27;20027;-83
2022/05/07 01:21:38;;;;;;;10.07;8.15;;;;;;;3.93;100.00;93563.16;2114575;28;20027;-82
2022/05/07 01:22:40;;;;;;;10.15;9.15;;;;;;;3.99;100.00;93564.34;2097868;28;20029;-83
2022/05/07 01:23:42;;;;;;;10.32;8.48;;;;;;;3.98;100.00;93562.06;2114972;27;20035;-83
2022/05/07 01:24:43;;;;;;;9.13;8.10;;;;;;;4.03;100.00;93561.72;2114448;28;20050;-83
2022/05/07 01:25:44;;;;;;;9.45;8.48;;;;;;;4.03;100.00;93565.13;2105473;28;20062;-82
2022/05/07 01:26:45;;;;;;;8.68;7.70;;;;;;;4.06;100.00;93561.00;2105569;28;20024;-83
2022/05/07 01:27:46;;;;;;;8.90;8.05;;;;;;;3.97;100.00;93560.53;2099847;28;20493;-80
2022/05/07 01:28:47;;;;;;;10.18;8.35;;;;;;;3.86;100.00;93557.78;2097806;28;20026;-82
2022/05/07 01:29:48;;;;;;;10.00;7.78;;;;;;;3.81;100.00;93560.00;2099580;28;20374;-80
2022/05/07 01:30:50;;;;;;;8.45;7.65;;;;;;;3.82;100.00;93559.66;2105804;28;20123;-82
2022/05/07 01:31:51;;;;;;;9.02;8.13;;;;;;;3.78;100.00;93562.25;2123041;27;20669;-81
2022/05/07 01:32:52;;;;;;;10.55;8.80;;;;;;;3.88;100.00;93560.84;2114421;28;20024;-81
2022/05/07 01:33:54;;;;;;;10.30;8.70;;;;;;;3.90;100.00;93560.47;2097647;28;20103;-83
2022/05/07 01:34:55;;;;;;;9.07;8.15;;;;;;;3.79;100.00;93557.72;2105129;28;20028;-83
2022/05/07 01:35:56;;;;;;;8.35;7.57;;;;;;;3.84;100.00;93560.03;2100870;28;20051;-81
2022/05/07 01:36:56;;;;;;;9.02;8.07;;;;;;;3.91;100.00;93552.19;2114449;28;20031;-81
2022/05/07 01:37:57;;;;;;;9.38;7.88;;;;;;;3.91;100.00;93557.47;2113524;28;20065;-81
2022/05/07 01:38:58;;;;;;;8.70;7.75;;;;;;;3.91;100.00;93556.72;2105997;28;20064;-81
2022/05/07 01:40:06;;;;;;;9.13;7.63;;;;;;;3.92;100.00;93553.69;2106019;28;20035;-81
2022/05/07 01:41:07;;;;;;;10.40;8.20;;;;;;;3.91;100.00;93560.13;2114263;28;20606;-80
2022/05/07 01:42:08;;;;;;;8.85;7.82;;;;;;;3.84;100.00;93557.38;2105769;28;20039;-82
2022/05/07 01:43:09;;;;;;;8.68;7.78;;;;;;;3.80;100.00;93561.88;2089520;28;20084;-81
2022/05/07 01:44:10;;;;;;;11.88;8.80;;;;;;;3.73;100.00;93562.56;2090472;28;20075;-81
2022/05/07 01:45:11;;;;;;;8.95;7.85;;;;;;;3.70;100.00;93557.25;2105999;28;20027;-83
2022/05/07 01:48:55;;;;;;;9.20;7.25;;;;;;;3.77;100.00;93558.06;2122336;27;20034;-81
2022/05/07 01:49:56;;;;;;;11.07;8.48;;;;;;;3.76;100.00;93555.78;2121793;27;20093;-84
2022/05/07 01:50:57;;;;;;;8.63;7.72;;;;;;;3.73;100.00;93557.28;2104524;28;20031;-80
2022/05/07 01:51:58;;;;;;;9.07;8.18;;;;;;;3.70;100.00;93555.34;2108783;28;20035;-81
2022/05/07 01:52:59;;;;;;;9.07;7.93;;;;;;;3.65;100.00;93554.91;2121248;27;20022;-81
2022/05/07 01:54:00;;;;;;;9.50;8.68;;;;;;;3.62;100.00;93553.00;2100668;28;20027;-82
2022/05/07 01:55:01;;;;;;;9.75;8.80;;;;;;;3.61;100.00;93546.94;2105731;28;20095;-82
2022/05/07 01:56:02;;;;;;;9.90;8.35;;;;;;;3.61;100.00;93549.59;2110181;28;20019;-81
2022/05/07 01:57:03;;;;;;;9.05;8.15;;;;;;;3.61;100.00;93556.75;2105866;28;20092;-81
2022/05/07 01:58:04;;;;;;;9.60;8.10;;;;;;;3.69;100.00;93550.44;2105902;28;20073;-80
2022/05/07 01:59:06;;;;;;;9.98;8.73;;;;;;;3.65;100.00;93547.00;2110420;28;20631;-81
2022/05/07 02:00:08;;;;;;;8.98;8.07;;;;;;;3.57;100.00;93555.97;2114289;28;20026;-83
2022/05/07 02:01:10;;;;;;;10.38;8.57;;;;;;;3.64;100.00;93543.56;2105922;28;20035;-82
2022/05/07 02:02:11;;;;;;;10.52;8.32;;;;;;;3.56;100.00;93554.41;2096716;28;20111;-82
2022/05/07 02:03:12;;;;;;;9.88;8.85;;;;;;;3.58;100.00;93552.94;2097466;28;20488;-81
2022/05/07 02:04:13;;;;;;;10.25;7.88;;;;;;;3.54;100.00;93550.25;2105503;28;20020;-82
2022/05/07 02:05:14;;;;;;;9.13;7.93;;;;;;;3.54;100.00;93549.50;2105790;28;20140;-80
2022/05/07 02:06:15;;;;;;;10.48;8.40;;;;;;;3.53;100.00;93547.97;2107199;28;20528;-82
2022/05/07 02:07:16;;;;;;;8.43;7.63;;;;;;;3.70;100.00;93559.88;2122694;27;20019;-82
2022/05/07 02:08:17;;;;;;;12.82;9.38;;;;;;;3.60;100.00;93555.22;2105854;28;20030;-82
2022/05/07 02:09:18;;;;;;;9.48;8.32;;;;;;;3.59;100.00;93557.09;2105946;28;20067;-83
2022/05/07 02:10:20;;;;;;;9.52;8.52;;;;;;;3.58;100.00;93560.88;2104121;28;20114;-83
2022/05/07 02:13:05;;;;;;;;;;;;;;;3.62;100.00;93556.38;2148685;27;20531;-83
2022/05/07 02:14:06;;;;;;;10.23;8.35;;;;;;;3.54;100.00;93558.19;2128969;27;19919;-82
2022/05/07 02:15:08;;;;;;;10.10;8.98;;;;;;;3.43;100.00;93553.91;2113144;27;20098;-81
2022/05/07 02:16:09;;;;;;;9.32;8.40;;;;;;;3.42;100.00;93547.84;2113272;27;20074;-80
2022/05/07 02:17:10;;;;;;;9.35;8.45;;;;;;;3.39;100.00;93555.75;2112957;27;20024;-81
2022/05/07 02:18:11;;;;;;;8.88;7.88;;;;;;;3.43;100.00;93549.38;2130016;27;20031;-82
2022/05/07 02:19:12;;;;;;;10.43;8.20;;;;;;;3.45;100.00;93562.97;2129913;27;20030;-82
2022/05/07 02:20:12;;;;;;;9.68;8.60;;;;;;;3.40;100.00;93554.63;2131639;27;20019;-80
2022/05/07 02:21:13;;;;;;;10.52;8.38;;;;;;;3.45;100.00;93554.28;2121109;27;20073;-81
2022/05/07 02:22:14;;;;;;;9.48;8.57;;;;;;;3.53;100.00;93547.97;2116138;28;20020;-81
2022/05/07 02:23:19;;;;;;;9.63;8.60;;;;;;;3.53;100.00;93551.38;2120973;27;20022;-83
2022/05/07 02:24:20;;;;;;;9.00;8.10;;;;;;;3.49;100.00;93558.50;2124400;27;20050;-80
2022/05/07 02:25:25;;;;;;;9.35;8.40;;;;;;;3.45;100.00;93552.41;2129766;27;20392;-81
2022/05/07 02:26:25;;;;;;;9.60;8.68;;;;;;;3.49;100.00;93558.50;2121468;27;20649;-81
2022/05/07 02:27:27;;;;;;;9.70;8.70;;;;;;;3.54;100.00;93550.25;2121313;28;20028;-82
2022/05/07 02:28:28;;;;;;;9.75;8.65;;;;;;;3.56;100.00;93549.13;2121821;27;20023;-82
2022/05/07 02:29:29;;;;;;;9.93;8.48;;;;;;;3.52;100.00;93557.03;2121115;27;20942;-81
2022/05/07 02:30:30;;;;;;;9.57;8.68;;;;;;;3.42;100.00;93549.72;2121561;27;20118;-83
2022/05/07 02:31:31;;;;;;;9.90;8.65;;;;;;;3.31;100.00;93548.84;2129973;27;20067;-82
2022/05/07 02:32:33;;;;;;;9.65;8.65;;;;;;;3.42;100.00;93550.47;2120787;28;20100;-83
2022/05/07 02:33:34;;;;;;;10.00;9.00;;;;;;;3.33;100.00;93554.53;2117913;27;20031;-80
2022/05/07 02:34:36;;;;;;;11.20;8.68;;;;;;;3.34;100.00;93548.91;2125637;27;20054;-80
2022/05/07 02:35:37;;;;;;;9.55;8.35;;;;;;;3.39;100.00;93553.84;2113464;27;20024;-83
2022/05/07 02:36:38;;;;;;;9.40;8.27;;;;;;;3.33;100.00;93557.16;2112834;28;20051;-82
2022/05/07 02:37:40;;;;;;;10.27;9.02;;;;;;;3.28;100.00;93553.72;2120657;27;20019;-82
2022/05/07 02:38:41;;;;;;;10.00;9.10;;;;;;;3.37;100.00;93560.59;2116718;28;20119;-81
2022/05/07 02:39:42;;;;;;;9.88;8.77;;;;;;;3.40;100.00;93558.03;2112851;27;20488;-81
2022/05/07 02:43:22;;;;;;;9.23;8.32;;;;;;;3.39;100.00;93555.75;2129994;27;20023;-81
2022/05/07 02:44:23;;;;;;;9.50;8.30;;;;;;;3.32;100.00;93553.75;2128795;27;20033;-83
2022/05/07 02:45:23;;;;;;;9.73;8.80;;;;;;;3.28;100.00;93558.22;2117271;27;20117;-83
2022/05/07 02:46:24;;;;;;;9.30;8.40;;;;;;;3.31;100.00;93554.13;2113028;27;20028;-82
2022/05/07 02:47:25;;;;;;;9.13;8.18;;;;;;;3.27;100.00;93559.34;2121457;27;20082;-81
2022/05/07 02:48:26;;;;;;;8.90;8.00;;;;;;;3.23;100.00;93548.00;2108206;27;20020;-83
2022/05/07 02:49:27;;;;;;;9.13;8.23;;;;;;;3.28;100.00;93560.88;2108765;28;20558;-83
2022/05/07 02:50:29;;;;;;;9.35;8.35;;;;;;;3.24;100.00;93550.25;2120421;27;20666;-83
2022/05/07 02:51:30;;;;;;;9.85;8.07;;;;;;;3.19;100.00;93545.28;2121276;27;20039;-81
2022/05/07 02:52:33;;;;;;;9.93;8.82;;;;;;;3.15;100.00;93549.75;2125404;27;20027;-83
2022/05/07 02:53:34;;;;;;;9.43;8.52;;;;;;;3.10;100.00;93555.38;2134913;27;20458;-83
2022/05/07 02:54:35;;;;;;;9.23;8.30;;;;;;;3.14;100.00;93550.13;2129798;27;20118;-82
2022/05/07 02:55:36;;;;;;;12.18;9.65;;;;;;;3.23;100.00;93556.66;2113024;27;20019;-80
2022/05/07 02:56:36;;;;;;;9.65;8.68;;;;;;;3.18;100.00;93553.59;2121322;27;20110;-80
2022/05/07 02:57:38;;;;;;;9.88;8.13;;;;;;;3.22;100.00;93559.69;2129778;27;20049;-82
2022/05/07 02:58:39;;;;;;;12.10;8.75;;;;;;;3.33;100.00;93547.34;2125528;27;20023;-82
2022/05/07 02:59:39;;;;;;;9.38;8.40;;;;;;;3.25;100.00;93545.75;2121204;28;20019;-81
2022/05/07 03:00:41;;;;;;;9.73;8.70;;;;;;;3.27;100.00;93548.78;2121302;28;20047;-81
2022/05/07 03:01:42;;;;;;;10.82;8.43;;;;;;;3.22;100.00;93549.13;2120931;27;20032;-83
2022/05/07 03:02:43;;;;;;;9.98;8.43;;;;;;;3.21;100.00;93545.72;2120882;27;20016;-82
2022/05/07 03:03:44;;;;;;;10.20;8.20;;;;;;;3.28;100.00;93545.03;2120997;28;20023;-82
2022/05/07 03:04:47;;;;;;;11.32;8.90;;;;;;;3.26;100.00;93549.91;2134117;27;20026;-83
2022/05/07 03:05:48;;;;;;;10.00;9.00;;;;;;;3.25;100.00;93548.41;2131668;27;20631;-81
2022/05/07 03:06:49;;;;;;;10.02;8.30;;;;;;;3.17;100.00;93547.53;2105978;28;20024;-82
2022/05/07 03:07:50;;;;;;;9.75;8.75;;;;;;;3.18;100.00;93543.78;2096279;28;20028;-82
2022/05/07 03:08:52;;;;;;;11.27;9.25;;;;;;;3.12;100.00;93550.50;2098236;28;20025;-83
2022/05/07 03:09:53;;;;;;;11.27;9.23;;;;;;;3.08;100.00;93547.03;2113034;28;20015;-81
2022/05/07 03:10:54;;;;;;;12.25;8.30;;;;;;;3.08;100.00;93546.28;2112921;28;20064;-82
2022/05/07 03:11:55;;;;;;;9.88;8.50;;;;;;;3.25;100.00;93538.59;2104421;28;20116;-81
2022/05/07 03:12:56;;;;;;;9.80;8.80;;;;;;;3.22;100.00;93538.53;2103911;28;20055;-83
2022/05/07 03:13:57;;;;;;;9.80;8.90;;;;;;;3.22;100.00;93544.59;2103105;28;20020;-82
2022/05/07 03:14:58;;;;;;;10.35;9.32;;;;;;;3.17;100.00;93546.78;2104575;28;20182;-82
2022/05/07 03:16:00;;;;;;;12.68;9.02;;;;;;;3.14;100.00;93547.50;2121161;27;20487;-80
2022/05/07 03:17:01;;;;;;;12.90;8.82;;;;;;;3.08;100.00;93548.94;2129842;27;20019;-81
2022/05/07 03:18:02;;;;;;;12.02;8.90;;;;;;;3.02;100.00;93543.94;2121212;28;20106;-82
2022/05/07 03:19:03;;;;;;;10.82;8.50;;;;;;;3.10;100.00;93547.44;2104069;28;20028;-82
2022/05/07 03:20:09;;;;;;;10.07;9.05;;;;;;;3.07;100.00;93548.16;2104608;28;20519;-81
2022/05/07 03:21:11;;;;;;;11.00;9.48;;;;;;;3.17;100.00;93541.50;2105025;28;20020;-81
2022/05/07 03:22:12;;;;;;;10.75;9.00;;;;;;;3.16;100.00;93542.59;2121279;27;20027;-83
2022/05/07 03:23:13;;;;;;;10.65;8.90;;;;;;;3.02;100.00;93546.56;2121091;28;20027;-81
2022/05/07 03:24:14;;;;;;;12.93;9.70;;;;;;;2.96;100.00;93540.09;2108391;28;20028;-81
2022/05/07 03:25:15;;;;;;;11.07;9.65;;;;;;;2.98;100.00;93542.38;2115448;27;20441;-83
2022/05/07 03:26:17;;;;;;;9.95;8.95;;;;;;;2.98;100.00;93542.38;2114774;27;20065;-82
2022/05/07 03:27:18;;;;;;;10.77;9.68;;;;;;;3.02;100.00;93543.19;2107207;28;20578;-80
2022/05/07 03:28:19;;;;;;;10.60;9.45;;;;;;;2.97;100.00;93538.97;2123888;27;20027;-82
2022/05/07 03:29:20;;;;;;;11.10;9.75;;;;;;;2.99;100.00;93544.66;2123834;27;20051;-81
2022/05/07 03:30:21;;;;;;;10.45;9.38;;;;;;;2.96;100.00;93545.38;2123771;27;20019;-81
2022/05/07 03:31:22;;;;;;;10.68;8.93;;;;;;;3.02;100.00;93540.53;2115411;28;20023;-82
2022/05/07 03:32:23;;;;;;;10.52;9.35;;;;;;;3.05;100.00;93547.00;2115278;28;20023;-81
2022/05/07 03:33:25;;;;;;;10.65;9.52;;;;;;;3.01;100.00;93546.94;2106902;28;20101;-81
2022/05/07 03:34:30;;;;;;;11.13;8.82;;;;;;;3.04;100.00;93546.25;2107360;28;20032;-81
2022/05/07 03:35:31;;;;;;;11.18;9.13;;;;;;;3.00;100.00;93543.53;2123570;27;20073;-82
2022/05/07 03:36:32;;;;;;;10.65;9.55;;;;;;;3.02;100.00;93541.28;2102583;28;20467;-80
2022/05/07 03:37:33;;;;;;;13.65;9.82;;;;;;;3.02;100.00;93543.94;2098230;28;20020;-81
2022/05/07 03:38:34;;;;;;;12.65;9.88;;;;;;;2.98;100.00;93542.38;2098427;28;20377;-81
2022/05/07 03:39:35;;;;;;;14.85;9.88;;;;;;;2.99;100.00;93541.28;2115441;28;20694;-83
2022/05/07 03:40:36;;;;;;;12.75;9.40;;;;;;;3.06;100.00;93537.94;2123865;27;20031;-81
2022/05/07 03:41:37;;;;;;;11.52;10.05;;;;;;;2.93;100.00;93538.16;2115420;28;20043;-82
2022/05/07 03:42:38;;;;;;;11.98;9.80;;;;;;;2.96;100.00;93545.38;2115251;28;20076;-82
2022/05/07 03:43:40;;;;;;;9.77;8.85;;;;;;;2.98;100.00;93543.13;2115638;28;20096;-81
2022/05/07 03:44:41;;;;;;;12.98;9.80;;;;;;;2.86;100.00;93545.25;2115735;27;20019;-82
2022/05/07 03:45:42;;;;;;;9.95;8.85;;;;;;;2.92;100.00;93543.81;2115117;28;20384;-82
2022/05/07 03:46:43;;;;;;;11.82;9.82;;;;;;;2.92;100.00;93538.53;2107161;28;20028;-81
2022/05/07 03:47:45;;;;;;;12.07;10.05;;;;;;;2.87;100.00;93552.03;2110795;28;20048;-82
2022/05/07 03:48:45;;;;;;;10.70;9.60;;;;;;;2.95;100.00;93541.22;2106578;28;20020;-81
2022/05/07 03:49:46;;;;;;;10.27;9.05;;;;;;;2.94;100.00;93544.19;2097885;28;20106;-81
2022/05/07 03:50:47;;;;;;;11.60;10.30;;;;;;;2.90;100.00;93543.41;2102757;28;20028;-82
2022/05/07 03:54:27;;;;;;;11.15;9.43;;;;;;;2.93;100.00;93537.41;2117650;27;20024;-82
2022/05/07 03:55:28;;;;;;;12.35;9.32;;;;;;;2.94;100.00;93539.69;2106627;28;20035;-82
2022/05/07 03:56:29;;;;;;;12.10;10.40;;;;;;;2.94;100.00;93537.06;2098288;28;20025;-80
2022/05/07 03:57:30;;;;;;;9.55;8.45;;;;;;;2.98;100.00;93545.00;2106987;28;20703;-84
2022/05/07 03:58:32;;;;;;;11.30;9.82;;;;;;;2.95;100.00;93543.09;2106780;28;20048;-80
2022/05/07 03:59:33;;;;;;;11.68;9.75;;;;;;;2.93;100.00;93550.59;2102875;28;20027;-81
2022/05/07 04:00:34;;;;;;;13.02;10.15;;;;;;;2.95;100.00;93543.84;2107083;28;20514;-81
2022/05/07 04:01:35;;;;;;;11.15;9.35;;;;;;;3.03;100.00;93536.81;2106409;28;20024;-82
2022/05/07 04:02:36;;;;;;;12.43;10.05;;;;;;;2.92;100.00;93541.16;2106580;28;20483;-82
2022/05/07 04:03:37;;;;;;;11.80;9.70;;;;;;;2.91;100.00;93540.41;2106816;28;20067;-81
2022/05/07 04:04:38;;;;;;;11.32;10.10;;;;;;;2.90;100.00;93541.53;2090292;28;20021;-82
2022/05/07 04:05:40;;;;;;;11.13;9.85;;;;;;;2.90;100.00;93538.13;2098620;28;20017;-82
2022/05/07 04:06:40;;;;;;;12.43;10.43;;;;;;;2.87;100.00;93536.94;2111034;28;20027;-80
2022/05/07 04:07:41;;;;;;;11.13;9.98;;;;;;;2.89;100.00;93549.78;2106911;28;20084;-81
2022/05/07 04:08:42;;;;;;;9.82;8.82;;;;;;;2.89;100.00;93541.88;2108455;28;20488;-81
2022/05/07 04:09:43;;;;;;;11.73;10.05;;;;;;;2.97;100.00;93538.97;2106653;28;20480;-80
2022/05/07 04:10:44;;;;;;;11.70;9.90;;;;;;;2.89;100.00;93536.59;2104857;28;20031;-81
2022/05/07 04:11:45;;;;;;;10.25;9.00;;;;;;;2.89;100.00;93542.63;2106752;27;20091;-82
2022/05/07 04:12:50;;;;;;;12.70;10.00;;;;;;;2.93;100.00;93542.69;2106557;28;20040;-81
2022/05/07 04:13:51;;;;;;;11.57;9.88;;;;;;;2.92;100.00;93547.19;2098285;28;20020;-82
2022/05/07 04:14:52;;;;;;;10.30;9.30;;;;;;;2.89;100.00;93536.59;2089780;28;20083;-80
2022/05/07 04:15:54;;;;;;;11.40;10.20;;;;;;;2.88;100.00;93546.38;2089998;28;20036;-81
2022/05/07 04:16:55;;;;;;;10.57;9.45;;;;;;;2.97;100.00;93549.53;2098384;28;20027;-82
2022/05/07 04:17:56;;;;;;;10.95;9.82;;;;;;;2.94;100.00;93547.63;2098382;28;20052;-84
2022/05/07 04:18:57;;;;;;;11.40;9.95;;;;;;;2.96;100.00;93545.38;2104570;28;20384;-82
2022/05/07 04:19:58;;;;;;;11.07;9.77;;;;;;;3.03;100.00;93550.00;2098252;28;20477;-82
2022/05/07 04:20:59;;;;;;;10.65;9.65;;;;;;;2.98;100.00;93539.72;2098318;28;20021;-84
2022/05/07 04:22:01;;;;;;;13.05;9.85;;;;;;;2.93;100.00;93548.72;2106670;28;20024;-81
2022/05/07 04:23:03;;;;;;;11.02;9.88;;;;;;;2.89;100.00;93549.78;2106637;28;20114;-82
2022/05/07 04:24:07;;;;;;;10.93;9.82;;;;;;;2.85;100.00;93549.72;2098209;28;20024;-81
2022/05/07 04:25:10;;;;;;;12.43;9.82;;;;;;;2.87;100.00;93536.19;2095458;28;20055;-82
2022/05/07 04:26:11;;;;;;;12.38;10.45;;;;;;;2.77;100.00;93548.88;2106526;27;20564;-81
2022/05/07 04:27:12;;;;;;;12.65;9.73;;;;;;;2.87;100.00;93552.78;2114927;27;20084;-81
2022/05/07 04:28:13;;;;;;;11.02;9.93;;;;;;;2.85;100.00;93543.69;2109081;28;20024;-82
2022/05/07 04:29:16;;;;;;;11.15;9.95;;;;;;;2.81;100.00;93548.16;2108166;28;20043;-81
2022/05/07 04:30:17;;;;;;;11.20;10.05;;;;;;;2.90;100.00;93546.06;2104671;28;20069;-82
2022/05/07 04:31:18;;;;;;;11.52;10.32;;;;;;;2.86;100.00;93548.63;2092133;28;20700;-83
2022/05/07 04:32:20;;;;;;;12.45;9.57;;;;;;;3.01;100.00;93539.03;2097951;28;20063;-83
2022/05/07 04:33:21;;;;;;;10.43;9.43;;;;;;;3.06;100.00;93553.78;2105349;28;21455;-83
2022/05/07 04:34:23;;;;;;;11.05;9.60;;;;;;;3.03;100.00;93548.13;2114926;28;20128;-82
2022/05/07 04:35:24;;;;;;;13.57;9.80;;;;;;;2.98;100.00;93553.69;2111640;28;20106;-81
2022/05/07 04:36:27;;;;;;;12.80;10.23;;;;;;;2.89;100.00;93545.25;2100891;28;20830;-82
2022/05/07 04:37:29;;;;;;;10.90;9.68;;;;;;;2.94;100.00;93546.84;2098161;28;20465;-79
2022/05/07 04:38:30;;;;;;;10.38;9.23;;;;;;;3.01;100.00;93546.94;2106458;28;20019;-80
2022/05/07 04:39:34;;;;;;;11.63;10.20;;;;;;;2.94;100.00;93552.91;2106547;28;20397;-83
2022/05/07 04:40:35;;;;;;;11.90;10.70;;;;;;;2.89;100.00;93553.19;2107379;27;20073;-80
2022/05/07 04:41:36;;;;;;;11.13;10.00;;;;;;;2.97;100.00;93548.78;2106254;28;20020;-81
2022/05/07 04:42:37;;;;;;;12.48;10.05;;;;;;;3.01;100.00;93549.59;2112176;28;20085;-80
2022/05/07 04:43:38;;;;;;;10.90;9.40;;;;;;;3.02;100.00;93557.13;2106423;28;20069;-82
2022/05/07 04:44:39;;;;;;;12.25;9.65;;;;;;;3.06;100.00;93553.78;2098193;28;20089;-81
2022/05/07 04:45:40;;;;;;;10.65;9.55;;;;;;;3.10;100.00;93551.97;2098129;28;20054;-83
2022/05/07 04:46:41;;;;;;;10.70;9.63;;;;;;;3.12;100.00;93555.78;2098082;28;20101;-81
2022/05/07 04:47:42;;;;;;;10.95;9.13;;;;;;;3.08;100.00;93549.69;2106273;28;20020;-83
2022/05/07 04:48:43;;;;;;;11.73;9.73;;;;;;;3.14;100.00;93550.88;2098162;28;20424;-83
2022/05/07 04:49:44;;;;;;;11.32;9.73;;;;;;;3.17;100.00;93554.72;2103937;28;20122;-81
2022/05/07 04:50:45;;;;;;;10.75;9.20;;;;;;;3.13;100.00;93556.53;2112189;28;20028;-81
2022/05/07 04:51:48;;;;;;;10.43;9.15;;;;;;;3.10;100.00;93559.88;2114928;28;20020;-79
2022/05/07 04:52:48;;;;;;;11.48;9.18;;;;;;;3.18;100.00;93556.97;2123011;27;20023;-81
2022/05/07 04:53:49;;;;;;;11.93;9.55;;;;;;;3.19;100.00;93560.38;2114789;28;20024;-82
2022/05/07 04:54:50;;;;;;;10.65;9.48;;;;;;;3.21;100.00;93556.28;2114801;28;20031;-82
2022/05/07 04:55:51;;;;;;;10.77;9.68;;;;;;;3.24;100.00;93554.78;2106325;28;20024;-81
2022/05/07 04:56:52;;;;;;;9.57;8.68;;;;;;;3.28;100.00;93556.34;2106492;28;20066;-82
2022/05/07 04:57:53;;;;;;;10.10;8.95;;;;;;;3.42;100.00;93550.47;2106622;28;20028;-81
2022/05/07 04:58:54;;;;;;;10.73;9.13;;;;;;;3.40;100.00;93560.66;2114142;28;20015;-81
2022/05/07 04:59:56;;;;;;;11.60;9.15;;;;;;;3.34;100.00;93556.81;2106188;28;20031;-81
2022/05/07 05:00:57;;;;;;;11.82;8.95;;;;;;;3.39;100.00;93566.31;2098193;28;20096;-82